sensor_id;sensor_type;location;lat;lon;timestamp;P1;durP1;ratioP1;P2;durP2;ratioP2
4575;SDS011;2300;51.874;8.430;2023-05-20T00:02:17;3.93;;;1.80;;
4575;SDS011;2300;51.874;8.430;2023-05-20T00:04:44;6.57;;;2.10;;
4575;SDS011;2300;51.874;8.430;2023-05-20T00:07:10;3.07;;;1.60;;
4575;SDS011;2300;51.874;8.430;2023-05-20T00:09:37;5.33;;;1.80;;
4575;SDS011;2300;51.874;8.430;2023-05-20T00:12:04;5.33;;;1.77;;
4575;SDS011;2300;51.874;8.430;2023-05-20T00:14:31;3.70;;;1.70;;
4575;SDS011;2300;51.874;8.430;2023-05-20T00:16:57;3.17;;;1.80;;
4575;SDS011;2300;51.874;8.430;2023-05-20T00:19:25;4.40;;;1.60;;
4575;SDS011;2300;51.874;8.430;2023-05-20T00:21:51;7.17;;;2.17;;
4575;SDS011;2300;51.874;8.430;2023-05-20T00:24:18;6.73;;;2.03;;
4575;SDS011;2300;51.874;8.430;2023-05-20T00:26:44;4.40;;;1.90;;
4575;SDS011;2300;51.874;8.430;2023-05-20T00:29:10;4.17;;;1.90;;
4575;SDS011;2300;51.874;8.430;2023-05-20T00:31:37;3.80;;;2.23;;
4575;SDS011;2300;51.874;8.430;2023-05-20T00:34:03;4.67;;;1.80;;
4575;SDS011;2300;51.874;8.430;2023-05-20T00:36:31;4.33;;;1.77;;
4575;SDS011;2300;51.874;8.430;2023-05-20T00:38:57;5.77;;;2.00;;
4575;SDS011;2300;51.874;8.430;2023-05-20T00:41:24;4.00;;;1.73;;
4575;SDS011;2300;51.874;8.430;2023-05-20T00:43:52;5.87;;;2.63;;
4575;SDS011;2300;51.874;8.430;2023-05-20T00:46:18;3.47;;;1.70;;
4575;SDS011;2300;51.874;8.430;2023-05-20T00:48:45;4.53;;;2.10;;
4575;SDS011;2300;51.874;8.430;2023-05-20T00:51:12;4.17;;;2.10;;
4575;SDS011;2300;51.874;8.430;2023-05-20T00:53:40;3.80;;;2.00;;
4575;SDS011;2300;51.874;8.430;2023-05-20T00:56:08;4.70;;;2.20;;
4575;SDS011;2300;51.874;8.430;2023-05-20T00:58:35;5.83;;;2.17;;
4575;SDS011;2300;51.874;8.430;2023-05-20T01:01:02;7.70;;;2.10;;
4575;SDS011;2300;51.874;8.430;2023-05-20T01:03:28;4.37;;;1.80;;
4575;SDS011;2300;51.874;8.430;2023-05-20T01:16:09;4.47;;;2.23;;
4575;SDS011;2300;51.874;8.430;2023-05-20T01:18:36;6.03;;;2.43;;
4575;SDS011;2300;51.874;8.430;2023-05-20T01:21:05;4.47;;;2.23;;
4575;SDS011;2300;51.874;8.430;2023-05-20T01:23:37;5.17;;;2.10;;
4575;SDS011;2300;51.874;8.430;2023-05-20T01:26:05;6.07;;;2.20;;
4575;SDS011;2300;51.874;8.430;2023-05-20T01:28:32;7.63;;;2.37;;
4575;SDS011;2300;51.874;8.430;2023-05-20T01:31:00;6.07;;;2.30;;
4575;SDS011;2300;51.874;8.430;2023-05-20T01:33:30;4.13;;;2.30;;
4575;SDS011;2300;51.874;8.430;2023-05-20T01:35:59;4.70;;;2.23;;
4575;SDS011;2300;51.874;8.430;2023-05-20T01:38:26;5.87;;;2.77;;
4575;SDS011;2300;51.874;8.430;2023-05-20T01:40:55;3.73;;;2.10;;
4575;SDS011;2300;51.874;8.430;2023-05-20T01:43:23;5.13;;;2.60;;
4575;SDS011;2300;51.874;8.430;2023-05-20T01:45:50;3.93;;;2.30;;
4575;SDS011;2300;51.874;8.430;2023-05-20T01:48:17;5.50;;;2.30;;
4575;SDS011;2300;51.874;8.430;2023-05-20T01:50:43;4.37;;;1.90;;
4575;SDS011;2300;51.874;8.430;2023-05-20T01:53:10;4.90;;;2.20;;
4575;SDS011;2300;51.874;8.430;2023-05-20T01:55:37;4.60;;;2.27;;
4575;SDS011;2300;51.874;8.430;2023-05-20T01:58:05;4.47;;;2.43;;
4575;SDS011;2300;51.874;8.430;2023-05-20T02:00:31;4.90;;;2.40;;
4575;SDS011;2300;51.874;8.430;2023-05-20T02:02:58;5.40;;;2.70;;
4575;SDS011;2300;51.874;8.430;2023-05-20T02:05:26;6.43;;;2.40;;
4575;SDS011;2300;51.874;8.430;2023-05-20T02:07:53;5.53;;;2.40;;
4575;SDS011;2300;51.874;8.430;2023-05-20T02:10:19;5.20;;;2.40;;
4575;SDS011;2300;51.874;8.430;2023-05-20T02:12:46;6.37;;;3.00;;
4575;SDS011;2300;51.874;8.430;2023-05-20T02:15:14;6.77;;;2.50;;
4575;SDS011;2300;51.874;8.430;2023-05-20T02:17:41;5.27;;;2.67;;
4575;SDS011;2300;51.874;8.430;2023-05-20T02:20:08;3.20;;;2.03;;
4575;SDS011;2300;51.874;8.430;2023-05-20T02:22:35;6.10;;;2.83;;
4575;SDS011;2300;51.874;8.430;2023-05-20T02:25:02;4.97;;;2.50;;
4575;SDS011;2300;51.874;8.430;2023-05-20T02:27:29;5.13;;;2.30;;
4575;SDS011;2300;51.874;8.430;2023-05-20T02:29:55;4.53;;;2.77;;
4575;SDS011;2300;51.874;8.430;2023-05-20T02:32:23;4.47;;;2.40;;
4575;SDS011;2300;51.874;8.430;2023-05-20T02:34:52;9.33;;;3.33;;
4575;SDS011;2300;51.874;8.430;2023-05-20T02:37:18;7.40;;;2.77;;
4575;SDS011;2300;51.874;8.430;2023-05-20T02:39:45;3.80;;;2.70;;
4575;SDS011;2300;51.874;8.430;2023-05-20T02:42:11;4.70;;;2.23;;
4575;SDS011;2300;51.874;8.430;2023-05-20T02:44:38;6.73;;;3.10;;
4575;SDS011;2300;51.874;8.430;2023-05-20T02:47:05;5.27;;;2.63;;
4575;SDS011;2300;51.874;8.430;2023-05-20T02:49:32;6.50;;;2.83;;
4575;SDS011;2300;51.874;8.430;2023-05-20T02:52:00;6.47;;;2.63;;
4575;SDS011;2300;51.874;8.430;2023-05-20T02:54:26;6.63;;;3.17;;
4575;SDS011;2300;51.874;8.430;2023-05-20T02:56:53;5.93;;;2.97;;
4575;SDS011;2300;51.874;8.430;2023-05-20T02:59:19;4.27;;;2.53;;
4575;SDS011;2300;51.874;8.430;2023-05-20T03:01:46;5.70;;;2.83;;
4575;SDS011;2300;51.874;8.430;2023-05-20T03:04:12;5.67;;;2.90;;
4575;SDS011;2300;51.874;8.430;2023-05-20T03:06:40;5.30;;;2.83;;
4575;SDS011;2300;51.874;8.430;2023-05-20T03:09:08;5.83;;;3.00;;
4575;SDS011;2300;51.874;8.430;2023-05-20T03:11:35;7.83;;;3.10;;
4575;SDS011;2300;51.874;8.430;2023-05-20T03:14:01;7.37;;;3.07;;
4575;SDS011;2300;51.874;8.430;2023-05-20T03:16:28;5.93;;;3.27;;
4575;SDS011;2300;51.874;8.430;2023-05-20T03:18:54;5.00;;;3.07;;
4575;SDS011;2300;51.874;8.430;2023-05-20T03:21:21;4.63;;;2.50;;
4575;SDS011;2300;51.874;8.430;2023-05-20T03:23:49;5.30;;;3.20;;
4575;SDS011;2300;51.874;8.430;2023-05-20T03:26:15;5.13;;;3.27;;
4575;SDS011;2300;51.874;8.430;2023-05-20T03:28:42;6.70;;;3.00;;
4575;SDS011;2300;51.874;8.430;2023-05-20T03:31:08;6.63;;;3.20;;
4575;SDS011;2300;51.874;8.430;2023-05-20T03:33:35;5.57;;;2.70;;
4575;SDS011;2300;51.874;8.430;2023-05-20T03:36:01;5.33;;;2.90;;
4575;SDS011;2300;51.874;8.430;2023-05-20T03:38:28;6.43;;;3.53;;
4575;SDS011;2300;51.874;8.430;2023-05-20T03:40:56;5.50;;;2.97;;
4575;SDS011;2300;51.874;8.430;2023-05-20T03:43:22;5.03;;;3.00;;
4575;SDS011;2300;51.874;8.430;2023-05-20T03:45:49;5.50;;;3.33;;
4575;SDS011;2300;51.874;8.430;2023-05-20T03:48:15;6.10;;;3.27;;
4575;SDS011;2300;51.874;8.430;2023-05-20T03:50:42;5.67;;;3.10;;
4575;SDS011;2300;51.874;8.430;2023-05-20T03:53:08;7.23;;;3.20;;
4575;SDS011;2300;51.874;8.430;2023-05-20T03:55:35;6.53;;;3.20;;
4575;SDS011;2300;51.874;8.430;2023-05-20T03:58:02;7.33;;;3.20;;
4575;SDS011;2300;51.874;8.430;2023-05-20T04:00:29;6.57;;;3.23;;
4575;SDS011;2300;51.874;8.430;2023-05-20T04:02:55;5.43;;;2.60;;
4575;SDS011;2300;51.874;8.430;2023-05-20T04:05:23;7.67;;;3.10;;
4575;SDS011;2300;51.874;8.430;2023-05-20T04:07:50;6.27;;;3.23;;
4575;SDS011;2300;51.874;8.430;2023-05-20T04:10:17;5.73;;;3.20;;
4575;SDS011;2300;51.874;8.430;2023-05-20T04:12:44;6.90;;;3.20;;
4575;SDS011;2300;51.874;8.430;2023-05-20T04:15:12;5.93;;;2.70;;
4575;SDS011;2300;51.874;8.430;2023-05-20T04:17:39;5.53;;;3.23;;
4575;SDS011;2300;51.874;8.430;2023-05-20T04:20:06;8.57;;;3.40;;
4575;SDS011;2300;51.874;8.430;2023-05-20T04:22:34;6.17;;;3.07;;
4575;SDS011;2300;51.874;8.430;2023-05-20T04:25:01;5.97;;;3.50;;
4575;SDS011;2300;51.874;8.430;2023-05-20T04:27:29;4.70;;;3.17;;
4575;SDS011;2300;51.874;8.430;2023-05-20T04:29:55;7.50;;;3.27;;
4575;SDS011;2300;51.874;8.430;2023-05-20T04:32:24;5.13;;;3.30;;
4575;SDS011;2300;51.874;8.430;2023-05-20T04:34:56;5.57;;;3.00;;
4575;SDS011;2300;51.874;8.430;2023-05-20T04:37:23;6.30;;;3.20;;
4575;SDS011;2300;51.874;8.430;2023-05-20T04:39:50;6.47;;;3.30;;
4575;SDS011;2300;51.874;8.430;2023-05-20T04:42:16;7.07;;;3.10;;
4575;SDS011;2300;51.874;8.430;2023-05-20T04:44:44;6.47;;;3.33;;
4575;SDS011;2300;51.874;8.430;2023-05-20T04:47:12;6.00;;;3.10;;
4575;SDS011;2300;51.874;8.430;2023-05-20T04:49:39;6.77;;;3.40;;
4575;SDS011;2300;51.874;8.430;2023-05-20T04:52:06;5.43;;;2.80;;
4575;SDS011;2300;51.874;8.430;2023-05-20T04:54:32;6.87;;;3.03;;
4575;SDS011;2300;51.874;8.430;2023-05-20T04:56:59;4.10;;;2.70;;
4575;SDS011;2300;51.874;8.430;2023-05-20T04:59:26;5.03;;;2.70;;
4575;SDS011;2300;51.874;8.430;2023-05-20T05:01:53;6.93;;;3.23;;
4575;SDS011;2300;51.874;8.430;2023-05-20T05:04:19;6.60;;;2.97;;
4575;SDS011;2300;51.874;8.430;2023-05-20T05:06:48;4.80;;;2.80;;
4575;SDS011;2300;51.874;8.430;2023-05-20T05:09:14;4.87;;;3.30;;
4575;SDS011;2300;51.874;8.430;2023-05-20T05:11:41;6.77;;;3.20;;
4575;SDS011;2300;51.874;8.430;2023-05-20T05:14:07;5.50;;;3.17;;
4575;SDS011;2300;51.874;8.430;2023-05-20T05:16:33;5.80;;;3.37;;
4575;SDS011;2300;51.874;8.430;2023-05-20T05:19:00;6.33;;;3.30;;
4575;SDS011;2300;51.874;8.430;2023-05-20T05:21:26;8.07;;;3.20;;
4575;SDS011;2300;51.874;8.430;2023-05-20T05:23:54;8.03;;;3.40;;
4575;SDS011;2300;51.874;8.430;2023-05-20T05:26:22;6.37;;;3.90;;
4575;SDS011;2300;51.874;8.430;2023-05-20T05:28:49;7.60;;;3.20;;
4575;SDS011;2300;51.874;8.430;2023-05-20T05:31:15;6.53;;;3.53;;
4575;SDS011;2300;51.874;8.430;2023-05-20T05:33:42;7.60;;;3.60;;
4575;SDS011;2300;51.874;8.430;2023-05-20T05:36:08;6.10;;;3.97;;
4575;SDS011;2300;51.874;8.430;2023-05-20T05:38:35;9.03;;;3.83;;
4575;SDS011;2300;51.874;8.430;2023-05-20T05:41:02;8.63;;;4.00;;
4575;SDS011;2300;51.874;8.430;2023-05-20T05:43:29;5.67;;;3.70;;
4575;SDS011;2300;51.874;8.430;2023-05-20T05:45:55;5.13;;;3.60;;
4575;SDS011;2300;51.874;8.430;2023-05-20T05:48:22;8.63;;;3.97;;
4575;SDS011;2300;51.874;8.430;2023-05-20T05:50:48;7.00;;;3.97;;
4575;SDS011;2300;51.874;8.430;2023-05-20T05:53:15;7.80;;;3.70;;
4575;SDS011;2300;51.874;8.430;2023-05-20T05:55:41;6.40;;;3.90;;
4575;SDS011;2300;51.874;8.430;2023-05-20T05:58:09;6.40;;;3.80;;
4575;SDS011;2300;51.874;8.430;2023-05-20T06:00:36;9.60;;;4.57;;
4575;SDS011;2300;51.874;8.430;2023-05-20T06:03:02;7.23;;;4.10;;
4575;SDS011;2300;51.874;8.430;2023-05-20T06:05:29;9.93;;;4.63;;
4575;SDS011;2300;51.874;8.430;2023-05-20T06:07:56;18.07;;;6.93;;
4575;SDS011;2300;51.874;8.430;2023-05-20T06:10:22;6.93;;;3.93;;
4575;SDS011;2300;51.874;8.430;2023-05-20T06:12:48;8.67;;;4.70;;
4575;SDS011;2300;51.874;8.430;2023-05-20T06:15:16;7.60;;;3.70;;
4575;SDS011;2300;51.874;8.430;2023-05-20T06:17:43;6.03;;;4.30;;
4575;SDS011;2300;51.874;8.430;2023-05-20T06:20:10;8.67;;;4.50;;
4575;SDS011;2300;51.874;8.430;2023-05-20T06:22:37;14.20;;;5.97;;
4575;SDS011;2300;51.874;8.430;2023-05-20T06:25:03;8.37;;;4.40;;
4575;SDS011;2300;51.874;8.430;2023-05-20T06:27:30;8.30;;;4.53;;
4575;SDS011;2300;51.874;8.430;2023-05-20T06:29:57;6.37;;;4.53;;
4575;SDS011;2300;51.874;8.430;2023-05-20T06:32:25;9.30;;;4.03;;
4575;SDS011;2300;51.874;8.430;2023-05-20T06:34:51;7.80;;;3.87;;
4575;SDS011;2300;51.874;8.430;2023-05-20T06:37:17;7.50;;;4.57;;
4575;SDS011;2300;51.874;8.430;2023-05-20T06:39:44;7.57;;;4.43;;
4575;SDS011;2300;51.874;8.430;2023-05-20T06:42:11;6.57;;;3.80;;
4575;SDS011;2300;51.874;8.430;2023-05-20T06:44:37;6.83;;;3.87;;
4575;SDS011;2300;51.874;8.430;2023-05-20T06:47:04;8.63;;;3.70;;
4575;SDS011;2300;51.874;8.430;2023-05-20T06:49:32;6.67;;;4.27;;
4575;SDS011;2300;51.874;8.430;2023-05-20T06:51:58;6.23;;;4.17;;
4575;SDS011;2300;51.874;8.430;2023-05-20T06:54:24;7.47;;;4.00;;
4575;SDS011;2300;51.874;8.430;2023-05-20T06:56:51;8.53;;;4.67;;
4575;SDS011;2300;51.874;8.430;2023-05-20T06:59:17;8.97;;;4.23;;
4575;SDS011;2300;51.874;8.430;2023-05-20T07:01:44;6.07;;;3.90;;
4575;SDS011;2300;51.874;8.430;2023-05-20T07:04:10;9.03;;;4.57;;
4575;SDS011;2300;51.874;8.430;2023-05-20T07:06:38;7.43;;;4.57;;
4575;SDS011;2300;51.874;8.430;2023-05-20T07:09:04;7.53;;;4.47;;
4575;SDS011;2300;51.874;8.430;2023-05-20T07:11:31;6.83;;;4.63;;
4575;SDS011;2300;51.874;8.430;2023-05-20T07:13:57;10.03;;;4.80;;
4575;SDS011;2300;51.874;8.430;2023-05-20T07:16:24;8.67;;;4.33;;
4575;SDS011;2300;51.874;8.430;2023-05-20T07:18:50;8.60;;;5.77;;
4575;SDS011;2300;51.874;8.430;2023-05-20T07:21:17;10.43;;;6.33;;
4575;SDS011;2300;51.874;8.430;2023-05-20T07:23:45;10.03;;;6.47;;
4575;SDS011;2300;51.874;8.430;2023-05-20T07:26:11;9.57;;;6.43;;
4575;SDS011;2300;51.874;8.430;2023-05-20T07:28:38;8.83;;;6.53;;
4575;SDS011;2300;51.874;8.430;2023-05-20T07:31:04;11.63;;;6.30;;
4575;SDS011;2300;51.874;8.430;2023-05-20T07:33:30;9.97;;;6.10;;
4575;SDS011;2300;51.874;8.430;2023-05-20T07:35:57;11.73;;;6.43;;
4575;SDS011;2300;51.874;8.430;2023-05-20T07:38:23;8.23;;;6.20;;
4575;SDS011;2300;51.874;8.430;2023-05-20T07:40:51;9.63;;;6.47;;
4575;SDS011;2300;51.874;8.430;2023-05-20T07:43:18;10.65;;;6.47;;
4575;SDS011;2300;51.874;8.430;2023-05-20T07:45:45;9.02;;;6.05;;
4575;SDS011;2300;51.874;8.430;2023-05-20T07:48:11;9.30;;;5.85;;
4575;SDS011;2300;51.874;8.430;2023-05-20T07:50:39;9.77;;;5.67;;
4575;SDS011;2300;51.874;8.430;2023-05-20T07:53:05;8.38;;;6.03;;
4575;SDS011;2300;51.874;8.430;2023-05-20T07:55:32;9.00;;;5.35;;
4575;SDS011;2300;51.874;8.430;2023-05-20T07:58:00;8.45;;;5.72;;
4575;SDS011;2300;51.874;8.430;2023-05-20T08:00:27;10.60;;;6.03;;
4575;SDS011;2300;51.874;8.430;2023-05-20T08:02:53;8.73;;;5.65;;
4575;SDS011;2300;51.874;8.430;2023-05-20T08:05:20;9.05;;;5.95;;
4575;SDS011;2300;51.874;8.430;2023-05-20T08:07:47;8.68;;;5.57;;
4575;SDS011;2300;51.874;8.430;2023-05-20T08:10:14;9.30;;;5.90;;
4575;SDS011;2300;51.874;8.430;2023-05-20T08:12:40;10.90;;;6.05;;
4575;SDS011;2300;51.874;8.430;2023-05-20T08:15:08;9.85;;;6.55;;
4575;SDS011;2300;51.874;8.430;2023-05-20T08:17:35;13.05;;;6.55;;
4575;SDS011;2300;51.874;8.430;2023-05-20T08:20:03;8.85;;;5.68;;
4575;SDS011;2300;51.874;8.430;2023-05-20T08:22:32;9.55;;;5.88;;
4575;SDS011;2300;51.874;8.430;2023-05-20T08:24:58;8.65;;;5.50;;
4575;SDS011;2300;51.874;8.430;2023-05-20T08:27:25;7.82;;;5.32;;
4575;SDS011;2300;51.874;8.430;2023-05-20T08:29:51;8.73;;;6.35;;
4575;SDS011;2300;51.874;8.430;2023-05-20T08:32:19;8.05;;;5.53;;
4575;SDS011;2300;51.874;8.430;2023-05-20T08:34:45;8.90;;;5.78;;
4575;SDS011;2300;51.874;8.430;2023-05-20T08:37:15;9.20;;;6.07;;
4575;SDS011;2300;51.874;8.430;2023-05-20T08:39:41;8.60;;;5.47;;
4575;SDS011;2300;51.874;8.430;2023-05-20T08:42:10;9.52;;;5.53;;
4575;SDS011;2300;51.874;8.430;2023-05-20T08:44:37;14.30;;;6.22;;
4575;SDS011;2300;51.874;8.430;2023-05-20T08:47:05;14.85;;;6.35;;
4575;SDS011;2300;51.874;8.430;2023-05-20T08:49:34;15.63;;;5.68;;
4575;SDS011;2300;51.874;8.430;2023-05-20T08:52:01;11.05;;;5.93;;
4575;SDS011;2300;51.874;8.430;2023-05-20T08:54:31;7.57;;;4.72;;
4575;SDS011;2300;51.874;8.430;2023-05-20T08:57:07;13.07;;;6.28;;
4575;SDS011;2300;51.874;8.430;2023-05-20T08:59:34;8.38;;;4.78;;
4575;SDS011;2300;51.874;8.430;2023-05-20T09:02:01;7.38;;;4.85;;
4575;SDS011;2300;51.874;8.430;2023-05-20T09:04:28;7.28;;;4.80;;
4575;SDS011;2300;51.874;8.430;2023-05-20T09:06:56;6.72;;;4.88;;
4575;SDS011;2300;51.874;8.430;2023-05-20T09:09:22;9.43;;;5.63;;
4575;SDS011;2300;51.874;8.430;2023-05-20T09:11:49;8.30;;;4.70;;
4575;SDS011;2300;51.874;8.430;2023-05-20T09:14:15;6.60;;;4.65;;
4575;SDS011;2300;51.874;8.430;2023-05-20T09:16:41;6.28;;;4.63;;
4575;SDS011;2300;51.874;8.430;2023-05-20T09:19:08;9.38;;;4.90;;
4575;SDS011;2300;51.874;8.430;2023-05-20T09:21:35;7.13;;;5.00;;
4575;SDS011;2300;51.874;8.430;2023-05-20T09:24:04;10.23;;;5.38;;
4575;SDS011;2300;51.874;8.430;2023-05-20T09:26:31;10.70;;;4.47;;
4575;SDS011;2300;51.874;8.430;2023-05-20T09:28:58;8.00;;;4.88;;
4575;SDS011;2300;51.874;8.430;2023-05-20T09:31:25;7.93;;;4.20;;
4575;SDS011;2300;51.874;8.430;2023-05-20T09:33:53;6.90;;;4.82;;
4575;SDS011;2300;51.874;8.430;2023-05-20T09:36:19;6.32;;;4.90;;
4575;SDS011;2300;51.874;8.430;2023-05-20T09:38:48;7.03;;;5.15;;
4575;SDS011;2300;51.874;8.430;2023-05-20T09:41:19;7.38;;;4.85;;
4575;SDS011;2300;51.874;8.430;2023-05-20T09:43:49;5.95;;;4.65;;
4575;SDS011;2300;51.874;8.430;2023-05-20T09:46:18;7.15;;;5.50;;
4575;SDS011;2300;51.874;8.430;2023-05-20T09:48:45;7.88;;;4.15;;
4575;SDS011;2300;51.874;8.430;2023-05-20T09:51:12;9.07;;;4.75;;
4575;SDS011;2300;51.874;8.430;2023-05-20T09:53:39;5.63;;;4.63;;
4575;SDS011;2300;51.874;8.430;2023-05-20T09:56:07;6.45;;;4.38;;
4575;SDS011;2300;51.874;8.430;2023-05-20T09:58:35;7.78;;;4.40;;
4575;SDS011;2300;51.874;8.430;2023-05-20T10:01:01;7.10;;;4.38;;
4575;SDS011;2300;51.874;8.430;2023-05-20T10:03:28;5.70;;;3.72;;
4575;SDS011;2300;51.874;8.430;2023-05-20T10:06:01;6.88;;;4.00;;
4575;SDS011;2300;51.874;8.430;2023-05-20T10:08:57;4.88;;;3.58;;
4575;SDS011;2300;51.874;8.430;2023-05-20T10:11:37;4.30;;;3.03;;
4575;SDS011;2300;51.874;8.430;2023-05-20T10:14:17;5.28;;;3.40;;
4575;SDS011;2300;51.874;8.430;2023-05-20T10:16:53;5.38;;;3.58;;
4575;SDS011;2300;51.874;8.430;2023-05-20T10:19:33;8.48;;;4.13;;
4575;SDS011;2300;51.874;8.430;2023-05-20T10:22:00;7.05;;;3.70;;
4575;SDS011;2300;51.874;8.430;2023-05-20T10:24:28;4.28;;;3.20;;
4575;SDS011;2300;51.874;8.430;2023-05-20T10:26:56;5.45;;;3.50;;
4575;SDS011;2300;51.874;8.430;2023-05-20T10:29:25;4.40;;;3.50;;
4575;SDS011;2300;51.874;8.430;2023-05-20T10:31:52;6.05;;;3.58;;
4575;SDS011;2300;51.874;8.430;2023-05-20T10:34:18;6.40;;;3.25;;
4575;SDS011;2300;51.874;8.430;2023-05-20T10:36:56;5.00;;;3.22;;
4575;SDS011;2300;51.874;8.430;2023-05-20T10:39:24;5.40;;;3.30;;
4575;SDS011;2300;51.874;8.430;2023-05-20T10:41:52;6.75;;;3.33;;
4575;SDS011;2300;51.874;8.430;2023-05-20T10:44:40;8.00;;;3.63;;
4575;SDS011;2300;51.874;8.430;2023-05-20T10:47:07;5.55;;;4.30;;
4575;SDS011;2300;51.874;8.430;2023-05-20T10:49:34;6.57;;;4.18;;
4575;SDS011;2300;51.874;8.430;2023-05-20T10:52:01;7.07;;;4.00;;
4575;SDS011;2300;51.874;8.430;2023-05-20T10:54:28;8.43;;;4.60;;
4575;SDS011;2300;51.874;8.430;2023-05-20T10:57:00;5.78;;;3.67;;
4575;SDS011;2300;51.874;8.430;2023-05-20T10:59:31;8.23;;;4.03;;
4575;SDS011;2300;51.874;8.430;2023-05-20T11:02:00;5.70;;;4.75;;
4575;SDS011;2300;51.874;8.430;2023-05-20T11:04:27;5.30;;;4.10;;
4575;SDS011;2300;51.874;8.430;2023-05-20T11:06:55;7.35;;;4.22;;
4575;SDS011;2300;51.874;8.430;2023-05-20T11:09:22;8.50;;;4.00;;
4575;SDS011;2300;51.874;8.430;2023-05-20T11:11:49;9.02;;;4.40;;
4575;SDS011;2300;51.874;8.430;2023-05-20T11:14:17;6.90;;;4.55;;
4575;SDS011;2300;51.874;8.430;2023-05-20T11:16:44;7.88;;;3.95;;
4575;SDS011;2300;51.874;8.430;2023-05-20T11:19:14;5.85;;;4.10;;
4575;SDS011;2300;51.874;8.430;2023-05-20T11:21:42;6.25;;;3.90;;
4575;SDS011;2300;51.874;8.430;2023-05-20T11:24:10;9.07;;;4.70;;
4575;SDS011;2300;51.874;8.430;2023-05-20T11:26:36;6.97;;;4.00;;
4575;SDS011;2300;51.874;8.430;2023-05-20T11:29:03;6.70;;;4.30;;
4575;SDS011;2300;51.874;8.430;2023-05-20T11:31:29;6.55;;;5.13;;
4575;SDS011;2300;51.874;8.430;2023-05-20T11:33:57;7.15;;;4.30;;
4575;SDS011;2300;51.874;8.430;2023-05-20T11:36:26;5.72;;;4.60;;
4575;SDS011;2300;51.874;8.430;2023-05-20T11:38:55;8.68;;;4.68;;
4575;SDS011;2300;51.874;8.430;2023-05-20T11:41:22;8.35;;;4.97;;
4575;SDS011;2300;51.874;8.430;2023-05-20T11:43:54;6.85;;;4.72;;
4575;SDS011;2300;51.874;8.430;2023-05-20T11:46:21;7.75;;;4.95;;
4575;SDS011;2300;51.874;8.430;2023-05-20T11:48:50;6.80;;;5.28;;
4575;SDS011;2300;51.874;8.430;2023-05-20T11:51:18;8.90;;;5.35;;
4575;SDS011;2300;51.874;8.430;2023-05-20T11:53:48;7.00;;;4.68;;
4575;SDS011;2300;51.874;8.430;2023-05-20T11:56:15;7.00;;;5.05;;
4575;SDS011;2300;51.874;8.430;2023-05-20T11:58:42;5.55;;;4.65;;
4575;SDS011;2300;51.874;8.430;2023-05-20T12:01:09;6.10;;;4.68;;
4575;SDS011;2300;51.874;8.430;2023-05-20T12:03:35;7.70;;;5.53;;
4575;SDS011;2300;51.874;8.430;2023-05-20T12:06:02;6.63;;;5.22;;
4575;SDS011;2300;51.874;8.430;2023-05-20T12:08:28;9.60;;;5.07;;
4575;SDS011;2300;51.874;8.430;2023-05-20T12:10:56;8.02;;;4.95;;
4575;SDS011;2300;51.874;8.430;2023-05-20T12:13:23;8.27;;;5.22;;
4575;SDS011;2300;51.874;8.430;2023-05-20T12:15:49;8.57;;;5.13;;
4575;SDS011;2300;51.874;8.430;2023-05-20T12:18:16;8.10;;;5.40;;
4575;SDS011;2300;51.874;8.430;2023-05-20T12:20:42;7.53;;;5.03;;
4575;SDS011;2300;51.874;8.430;2023-05-20T12:23:08;9.18;;;5.38;;
4575;SDS011;2300;51.874;8.430;2023-05-20T12:25:35;7.68;;;5.68;;
4575;SDS011;2300;51.874;8.430;2023-05-20T12:28:03;8.82;;;6.20;;
4575;SDS011;2300;51.874;8.430;2023-05-20T12:30:30;7.07;;;5.18;;
4575;SDS011;2300;51.874;8.430;2023-05-20T12:32:57;6.47;;;5.07;;
4575;SDS011;2300;51.874;8.430;2023-05-20T12:35:23;7.43;;;4.88;;
4575;SDS011;2300;51.874;8.430;2023-05-20T12:37:52;6.57;;;5.22;;
4575;SDS011;2300;51.874;8.430;2023-05-20T12:40:18;7.80;;;5.65;;
4575;SDS011;2300;51.874;8.430;2023-05-20T12:42:45;8.00;;;5.10;;
4575;SDS011;2300;51.874;8.430;2023-05-20T12:45:13;6.22;;;5.35;;
4575;SDS011;2300;51.874;8.430;2023-05-20T12:47:39;7.95;;;4.63;;
4575;SDS011;2300;51.874;8.430;2023-05-20T12:50:06;9.52;;;4.75;;
4575;SDS011;2300;51.874;8.430;2023-05-20T12:52:33;7.60;;;5.63;;
4575;SDS011;2300;51.874;8.430;2023-05-20T12:54:59;7.88;;;5.28;;
4575;SDS011;2300;51.874;8.430;2023-05-20T12:57:26;5.57;;;4.85;;
4575;SDS011;2300;51.874;8.430;2023-05-20T12:59:52;6.22;;;4.43;;
4575;SDS011;2300;51.874;8.430;2023-05-20T13:02:20;6.47;;;4.85;;
4575;SDS011;2300;51.874;8.430;2023-05-20T13:04:46;6.15;;;4.78;;
4575;SDS011;2300;51.874;8.430;2023-05-20T13:07:13;7.80;;;4.70;;
4575;SDS011;2300;51.874;8.430;2023-05-20T13:09:39;4.93;;;4.43;;
4575;SDS011;2300;51.874;8.430;2023-05-20T13:12:06;7.38;;;4.88;;
4575;SDS011;2300;51.874;8.430;2023-05-20T13:14:32;6.30;;;4.75;;
4575;SDS011;2300;51.874;8.430;2023-05-20T13:16:59;8.55;;;4.00;;
4575;SDS011;2300;51.874;8.430;2023-05-20T13:19:27;5.88;;;4.03;;
4575;SDS011;2300;51.874;8.430;2023-05-20T13:21:53;4.80;;;3.72;;
4575;SDS011;2300;51.874;8.430;2023-05-20T13:24:20;5.68;;;3.83;;
4575;SDS011;2300;51.874;8.430;2023-05-20T13:26:46;4.90;;;3.30;;
4575;SDS011;2300;51.874;8.430;2023-05-20T13:29:12;8.18;;;3.72;;
4575;SDS011;2300;51.874;8.430;2023-05-20T13:31:39;6.82;;;3.40;;
4575;SDS011;2300;51.874;8.430;2023-05-20T13:34:05;4.07;;;3.13;;
4575;SDS011;2300;51.874;8.430;2023-05-20T13:36:33;12.23;;;4.28;;
4575;SDS011;2300;51.874;8.430;2023-05-20T13:39:00;4.80;;;3.15;;
4575;SDS011;2300;51.874;8.430;2023-05-20T13:41:26;5.30;;;3.40;;
4575;SDS011;2300;51.874;8.430;2023-05-20T13:43:54;5.28;;;3.22;;
4575;SDS011;2300;51.874;8.430;2023-05-20T13:46:20;6.20;;;3.55;;
4575;SDS011;2300;51.874;8.430;2023-05-20T13:48:47;5.28;;;3.53;;
4575;SDS011;2300;51.874;8.430;2023-05-20T13:51:13;6.88;;;3.72;;
4575;SDS011;2300;51.874;8.430;2023-05-20T13:53:41;5.25;;;3.47;;
4575;SDS011;2300;51.874;8.430;2023-05-20T13:56:07;6.75;;;3.95;;
4575;SDS011;2300;51.874;8.430;2023-05-20T13:58:34;6.38;;;3.95;;
4575;SDS011;2300;51.874;8.430;2023-05-20T14:01:01;6.30;;;4.35;;
4575;SDS011;2300;51.874;8.430;2023-05-20T14:03:28;6.25;;;3.95;;
4575;SDS011;2300;51.874;8.430;2023-05-20T14:05:55;6.20;;;4.32;;
4575;SDS011;2300;51.874;8.430;2023-05-20T14:08:21;6.07;;;4.28;;
4575;SDS011;2300;51.874;8.430;2023-05-20T14:10:49;8.50;;;4.40;;
4575;SDS011;2300;51.874;8.430;2023-05-20T14:13:18;6.53;;;4.60;;
4575;SDS011;2300;51.874;8.430;2023-05-20T14:15:45;7.13;;;4.47;;
4575;SDS011;2300;51.874;8.430;2023-05-20T14:18:11;8.35;;;4.85;;
4575;SDS011;2300;51.874;8.430;2023-05-20T14:20:38;4.55;;;3.63;;
4575;SDS011;2300;51.874;8.430;2023-05-20T14:23:04;6.30;;;4.55;;
4575;SDS011;2300;51.874;8.430;2023-05-20T14:25:30;5.00;;;3.65;;
4575;SDS011;2300;51.874;8.430;2023-05-20T14:27:58;8.02;;;5.07;;
4575;SDS011;2300;51.874;8.430;2023-05-20T14:30:25;5.97;;;3.97;;
4575;SDS011;2300;51.874;8.430;2023-05-20T14:32:51;5.63;;;4.20;;
4575;SDS011;2300;51.874;8.430;2023-05-20T14:35:18;5.30;;;3.70;;
4575;SDS011;2300;51.874;8.430;2023-05-20T14:37:44;6.22;;;4.00;;
4575;SDS011;2300;51.874;8.430;2023-05-20T14:40:11;6.95;;;4.00;;
4575;SDS011;2300;51.874;8.430;2023-05-20T14:42:38;5.57;;;4.00;;
4575;SDS011;2300;51.874;8.430;2023-05-20T14:45:07;7.35;;;4.05;;
4575;SDS011;2300;51.874;8.430;2023-05-20T14:47:34;6.90;;;4.28;;
4575;SDS011;2300;51.874;8.430;2023-05-20T14:50:00;5.63;;;4.07;;
4575;SDS011;2300;51.874;8.430;2023-05-20T14:52:27;6.78;;;4.25;;
4575;SDS011;2300;51.874;8.430;2023-05-20T14:54:53;5.60;;;4.10;;
4575;SDS011;2300;51.874;8.430;2023-05-20T14:57:20;5.78;;;4.20;;
4575;SDS011;2300;51.874;8.430;2023-05-20T14:59:47;6.20;;;4.38;;
4575;SDS011;2300;51.874;8.430;2023-05-20T15:02:16;6.70;;;4.68;;
4575;SDS011;2300;51.874;8.430;2023-05-20T15:04:43;8.00;;;4.55;;
4575;SDS011;2300;51.874;8.430;2023-05-20T15:07:11;8.65;;;5.22;;
4575;SDS011;2300;51.874;8.430;2023-05-20T15:09:38;7.38;;;5.30;;
4575;SDS011;2300;51.874;8.430;2023-05-20T15:12:04;7.65;;;5.70;;
4575;SDS011;2300;51.874;8.430;2023-05-20T15:14:31;10.88;;;6.95;;
4575;SDS011;2300;51.874;8.430;2023-05-20T15:16:57;8.00;;;5.53;;
4575;SDS011;2300;51.874;8.430;2023-05-20T15:19:25;7.85;;;5.22;;
4575;SDS011;2300;51.874;8.430;2023-05-20T15:21:52;10.85;;;6.85;;
4575;SDS011;2300;51.874;8.430;2023-05-20T15:24:19;9.45;;;6.22;;
4575;SDS011;2300;51.874;8.430;2023-05-20T15:26:46;10.45;;;7.18;;